sensor_id;sensor_type;location;lat;lon;timestamp;P1;durP1;ratioP1;P2;durP2;ratioP2
33644;SDS011;19986;48.190;16.366;2023-04-26T00:02:13;44.45;;;42.00;;
33644;SDS011;19986;48.190;16.366;2023-04-26T00:04:39;45.10;;;42.53;;
33644;SDS011;19986;48.190;16.366;2023-04-26T00:07:05;47.13;;;44.40;;
33644;SDS011;19986;48.190;16.366;2023-04-26T00:09:32;47.28;;;44.67;;
33644;SDS011;19986;48.190;16.366;2023-04-26T00:11:58;45.67;;;43.10;;
33644;SDS011;19986;48.190;16.366;2023-04-26T00:14:24;45.90;;;43.05;;
33644;SDS011;19986;48.190;16.366;2023-04-26T00:16:50;44.42;;;41.72;;
33644;SDS011;19986;48.190;16.366;2023-04-26T00:19:16;47.60;;;44.08;;
33644;SDS011;19986;48.190;16.366;2023-04-26T00:21:42;47.90;;;45.13;;
33644;SDS011;19986;48.190;16.366;2023-04-26T00:24:08;46.63;;;43.83;;
33644;SDS011;19986;48.190;16.366;2023-04-26T00:26:36;48.45;;;45.67;;
33644;SDS011;19986;48.190;16.366;2023-04-26T00:29:05;47.50;;;44.58;;
33644;SDS011;19986;48.190;16.366;2023-04-26T00:31:31;46.17;;;43.67;;
33644;SDS011;19986;48.190;16.366;2023-04-26T00:33:57;45.55;;;42.92;;
33644;SDS011;19986;48.190;16.366;2023-04-26T00:36:23;46.92;;;44.25;;
33644;SDS011;19986;48.190;16.366;2023-04-26T00:38:48;48.00;;;45.30;;
33644;SDS011;19986;48.190;16.366;2023-04-26T00:41:14;48.63;;;45.83;;
33644;SDS011;19986;48.190;16.366;2023-04-26T00:43:40;47.22;;;44.35;;
33644;SDS011;19986;48.190;16.366;2023-04-26T00:46:09;48.80;;;45.90;;
33644;SDS011;19986;48.190;16.366;2023-04-26T00:48:35;48.20;;;45.25;;
33644;SDS011;19986;48.190;16.366;2023-04-26T00:51:02;48.88;;;46.08;;
33644;SDS011;19986;48.190;16.366;2023-04-26T00:53:29;47.15;;;44.40;;
33644;SDS011;19986;48.190;16.366;2023-04-26T00:55:55;48.53;;;45.65;;
33644;SDS011;19986;48.190;16.366;2023-04-26T00:58:23;48.30;;;45.47;;
33644;SDS011;19986;48.190;16.366;2023-04-26T01:00:50;47.72;;;45.03;;
33644;SDS011;19986;48.190;16.366;2023-04-26T01:03:16;49.70;;;46.60;;
33644;SDS011;19986;48.190;16.366;2023-04-26T01:05:43;47.03;;;44.33;;
33644;SDS011;19986;48.190;16.366;2023-04-26T01:11:48;46.70;;;43.90;;
33644;SDS011;19986;48.190;16.366;2023-04-26T01:14:16;46.78;;;44.08;;
33644;SDS011;19986;48.190;16.366;2023-04-26T01:16:42;45.47;;;42.83;;
33644;SDS011;19986;48.190;16.366;2023-04-26T01:19:13;43.88;;;41.42;;
33644;SDS011;19986;48.190;16.366;2023-04-26T01:21:40;46.78;;;44.15;;
33644;SDS011;19986;48.190;16.366;2023-04-26T01:24:10;46.28;;;43.58;;
33644;SDS011;19986;48.190;16.366;2023-04-26T01:26:40;45.92;;;43.08;;
33644;SDS011;19986;48.190;16.366;2023-04-26T01:29:17;47.42;;;44.53;;
33644;SDS011;19986;48.190;16.366;2023-04-26T01:31:59;45.92;;;43.38;;
33644;SDS011;19986;48.190;16.366;2023-04-26T01:34:25;48.28;;;45.60;;
33644;SDS011;19986;48.190;16.366;2023-04-26T01:36:52;46.92;;;44.28;;
33644;SDS011;19986;48.190;16.366;2023-04-26T01:39:18;44.42;;;42.00;;
33644;SDS011;19986;48.190;16.366;2023-04-26T01:41:45;45.15;;;42.55;;
33644;SDS011;19986;48.190;16.366;2023-04-26T01:44:11;47.75;;;44.97;;
33644;SDS011;19986;48.190;16.366;2023-04-26T01:46:38;45.33;;;42.25;;
33644;SDS011;19986;48.190;16.366;2023-04-26T01:49:04;45.08;;;42.65;;
33644;SDS011;19986;48.190;16.366;2023-04-26T01:51:31;44.03;;;41.42;;
33644;SDS011;19986;48.190;16.366;2023-04-26T01:53:59;44.47;;;41.88;;
33644;SDS011;19986;48.190;16.366;2023-04-26T01:56:24;47.53;;;44.92;;
33644;SDS011;19986;48.190;16.366;2023-04-26T01:58:51;44.72;;;42.17;;
33644;SDS011;19986;48.190;16.366;2023-04-26T02:01:20;44.47;;;41.88;;
33644;SDS011;19986;48.190;16.366;2023-04-26T02:03:46;45.03;;;42.42;;
33644;SDS011;19986;48.190;16.366;2023-04-26T02:06:17;42.08;;;39.72;;
33644;SDS011;19986;48.190;16.366;2023-04-26T02:12:30;44.35;;;41.78;;
33644;SDS011;19986;48.190;16.366;2023-04-26T02:18:17;45.38;;;42.85;;
33644;SDS011;19986;48.190;16.366;2023-04-26T02:20:46;44.50;;;41.72;;
33644;SDS011;19986;48.190;16.366;2023-04-26T02:23:13;42.47;;;40.10;;
33644;SDS011;19986;48.190;16.366;2023-04-26T02:25:39;43.80;;;41.30;;
33644;SDS011;19986;48.190;16.366;2023-04-26T02:28:07;43.70;;;40.95;;
33644;SDS011;19986;48.190;16.366;2023-04-26T02:30:33;48.28;;;45.58;;
33644;SDS011;19986;48.190;16.366;2023-04-26T02:32:58;47.03;;;44.20;;
33644;SDS011;19986;48.190;16.366;2023-04-26T02:35:24;45.63;;;43.08;;
33644;SDS011;19986;48.190;16.366;2023-04-26T02:37:50;45.03;;;42.42;;
33644;SDS011;19986;48.190;16.366;2023-04-26T02:40:20;44.35;;;41.53;;
33644;SDS011;19986;48.190;16.366;2023-04-26T02:42:48;43.22;;;40.83;;
33644;SDS011;19986;48.190;16.366;2023-04-26T02:45:14;46.22;;;43.72;;
33644;SDS011;19986;48.190;16.366;2023-04-26T02:47:41;44.67;;;42.17;;
33644;SDS011;19986;48.190;16.366;2023-04-26T02:50:07;43.30;;;40.72;;
33644;SDS011;19986;48.190;16.366;2023-04-26T02:52:35;47.97;;;44.97;;
33644;SDS011;19986;48.190;16.366;2023-04-26T02:55:04;45.13;;;42.67;;
33644;SDS011;19986;48.190;16.366;2023-04-26T02:57:31;45.05;;;42.65;;
33644;SDS011;19986;48.190;16.366;2023-04-26T03:00:03;43.67;;;41.15;;
33644;SDS011;19986;48.190;16.366;2023-04-26T03:02:30;42.15;;;39.72;;
33644;SDS011;19986;48.190;16.366;2023-04-26T03:04:56;44.33;;;42.00;;
33644;SDS011;19986;48.190;16.366;2023-04-26T03:07:22;45.45;;;42.83;;
33644;SDS011;19986;48.190;16.366;2023-04-26T03:09:48;42.60;;;40.28;;
33644;SDS011;19986;48.190;16.366;2023-04-26T03:12:15;44.95;;;42.45;;
33644;SDS011;19986;48.190;16.366;2023-04-26T03:14:41;45.22;;;42.53;;
33644;SDS011;19986;48.190;16.366;2023-04-26T03:17:07;44.72;;;42.10;;
33644;SDS011;19986;48.190;16.366;2023-04-26T03:19:33;43.75;;;41.40;;
33644;SDS011;19986;48.190;16.366;2023-04-26T03:21:59;45.17;;;42.53;;
33644;SDS011;19986;48.190;16.366;2023-04-26T03:24:25;43.20;;;40.47;;
33644;SDS011;19986;48.190;16.366;2023-04-26T03:26:51;43.30;;;40.63;;
33644;SDS011;19986;48.190;16.366;2023-04-26T03:29:17;46.15;;;43.42;;
33644;SDS011;19986;48.190;16.366;2023-04-26T03:31:43;42.63;;;40.17;;
33644;SDS011;19986;48.190;16.366;2023-04-26T03:34:08;42.55;;;40.20;;
33644;SDS011;19986;48.190;16.366;2023-04-26T03:36:34;42.90;;;40.40;;
33644;SDS011;19986;48.190;16.366;2023-04-26T03:39:00;41.72;;;39.35;;
33644;SDS011;19986;48.190;16.366;2023-04-26T03:41:26;43.30;;;40.85;;
33644;SDS011;19986;48.190;16.366;2023-04-26T03:43:52;44.17;;;41.58;;
33644;SDS011;19986;48.190;16.366;2023-04-26T03:46:17;45.28;;;42.67;;
33644;SDS011;19986;48.190;16.366;2023-04-26T03:48:43;46.28;;;43.78;;
33644;SDS011;19986;48.190;16.366;2023-04-26T03:51:09;44.80;;;42.15;;
33644;SDS011;19986;48.190;16.366;2023-04-26T03:53:35;44.40;;;41.38;;
33644;SDS011;19986;48.190;16.366;2023-04-26T03:56:01;45.95;;;43.15;;
33644;SDS011;19986;48.190;16.366;2023-04-26T03:58:27;44.40;;;42.03;;
33644;SDS011;19986;48.190;16.366;2023-04-26T04:00:56;44.28;;;41.60;;
33644;SDS011;19986;48.190;16.366;2023-04-26T04:03:25;45.70;;;42.75;;
33644;SDS011;19986;48.190;16.366;2023-04-26T04:05:50;43.75;;;41.25;;
33644;SDS011;19986;48.190;16.366;2023-04-26T04:08:16;45.58;;;42.88;;
33644;SDS011;19986;48.190;16.366;2023-04-26T04:10:43;44.30;;;41.70;;
33644;SDS011;19986;48.190;16.366;2023-04-26T04:13:09;45.70;;;43.13;;
33644;SDS011;19986;48.190;16.366;2023-04-26T04:15:35;43.28;;;40.70;;
33644;SDS011;19986;48.190;16.366;2023-04-26T04:18:01;44.00;;;41.30;;
33644;SDS011;19986;48.190;16.366;2023-04-26T04:20:27;44.45;;;41.85;;
33644;SDS011;19986;48.190;16.366;2023-04-26T04:22:53;43.63;;;41.03;;
33644;SDS011;19986;48.190;16.366;2023-04-26T04:25:20;46.00;;;43.38;;
33644;SDS011;19986;48.190;16.366;2023-04-26T04:27:47;44.13;;;41.65;;
33644;SDS011;19986;48.190;16.366;2023-04-26T04:30:13;43.20;;;40.53;;
33644;SDS011;19986;48.190;16.366;2023-04-26T04:32:39;46.47;;;43.72;;
33644;SDS011;19986;48.190;16.366;2023-04-26T04:35:08;43.45;;;40.72;;
33644;SDS011;19986;48.190;16.366;2023-04-26T04:37:34;45.90;;;43.17;;
33644;SDS011;19986;48.190;16.366;2023-04-26T04:40:00;45.10;;;42.25;;
33644;SDS011;19986;48.190;16.366;2023-04-26T04:42:26;44.28;;;41.88;;
33644;SDS011;19986;48.190;16.366;2023-04-26T04:44:52;44.63;;;41.78;;
33644;SDS011;19986;48.190;16.366;2023-04-26T04:47:19;45.67;;;42.67;;
33644;SDS011;19986;48.190;16.366;2023-04-26T04:49:44;45.00;;;41.83;;
33644;SDS011;19986;48.190;16.366;2023-04-26T04:52:11;43.47;;;40.90;;
33644;SDS011;19986;48.190;16.366;2023-04-26T04:54:37;45.92;;;43.05;;
33644;SDS011;19986;48.190;16.366;2023-04-26T04:57:03;45.25;;;42.58;;
33644;SDS011;19986;48.190;16.366;2023-04-26T04:59:30;46.30;;;43.60;;
33644;SDS011;19986;48.190;16.366;2023-04-26T05:01:57;46.22;;;42.72;;
33644;SDS011;19986;48.190;16.366;2023-04-26T05:04:23;45.83;;;43.05;;
33644;SDS011;19986;48.190;16.366;2023-04-26T05:06:49;45.92;;;43.30;;
33644;SDS011;19986;48.190;16.366;2023-04-26T05:09:15;44.15;;;41.55;;
33644;SDS011;19986;48.190;16.366;2023-04-26T05:11:41;44.75;;;42.20;;
33644;SDS011;19986;48.190;16.366;2023-04-26T05:14:07;46.55;;;43.53;;
33644;SDS011;19986;48.190;16.366;2023-04-26T05:16:33;45.03;;;42.47;;
33644;SDS011;19986;48.190;16.366;2023-04-26T05:19:00;47.47;;;44.67;;
33644;SDS011;19986;48.190;16.366;2023-04-26T05:21:25;46.47;;;43.70;;
33644;SDS011;19986;48.190;16.366;2023-04-26T05:23:52;47.63;;;44.85;;
33644;SDS011;19986;48.190;16.366;2023-04-26T05:26:18;46.22;;;43.28;;
33644;SDS011;19986;48.190;16.366;2023-04-26T05:28:44;46.40;;;43.72;;
33644;SDS011;19986;48.190;16.366;2023-04-26T05:31:10;43.80;;;41.20;;
33644;SDS011;19986;48.190;16.366;2023-04-26T05:33:36;46.42;;;43.58;;
33644;SDS011;19986;48.190;16.366;2023-04-26T05:36:02;45.05;;;42.35;;
33644;SDS011;19986;48.190;16.366;2023-04-26T05:38:28;46.10;;;43.25;;
33644;SDS011;19986;48.190;16.366;2023-04-26T05:40:54;43.08;;;40.58;;
33644;SDS011;19986;48.190;16.366;2023-04-26T05:43:20;44.65;;;41.97;;
33644;SDS011;19986;48.190;16.366;2023-04-26T05:45:49;44.70;;;42.03;;
33644;SDS011;19986;48.190;16.366;2023-04-26T05:48:16;43.22;;;40.83;;
33644;SDS011;19986;48.190;16.366;2023-04-26T05:50:42;44.67;;;41.67;;
33644;SDS011;19986;48.190;16.366;2023-04-26T05:53:08;43.30;;;40.70;;
33644;SDS011;19986;48.190;16.366;2023-04-26T05:55:35;44.30;;;41.45;;
33644;SDS011;19986;48.190;16.366;2023-04-26T05:58:01;46.47;;;43.78;;
33644;SDS011;19986;48.190;16.366;2023-04-26T06:00:27;43.88;;;41.38;;
33644;SDS011;19986;48.190;16.366;2023-04-26T06:02:53;45.50;;;43.03;;
33644;SDS011;19986;48.190;16.366;2023-04-26T06:05:19;46.15;;;43.55;;
33644;SDS011;19986;48.190;16.366;2023-04-26T06:07:45;46.95;;;43.97;;
33644;SDS011;19986;48.190;16.366;2023-04-26T06:10:11;46.25;;;43.60;;
33644;SDS011;19986;48.190;16.366;2023-04-26T06:12:37;44.90;;;42.30;;
33644;SDS011;19986;48.190;16.366;2023-04-26T06:15:03;43.25;;;40.72;;
33644;SDS011;19986;48.190;16.366;2023-04-26T06:17:30;43.33;;;40.75;;
33644;SDS011;19986;48.190;16.366;2023-04-26T06:19:56;43.50;;;40.97;;
33644;SDS011;19986;48.190;16.366;2023-04-26T06:22:22;44.50;;;41.47;;
33644;SDS011;19986;48.190;16.366;2023-04-26T06:24:48;45.10;;;42.40;;
33644;SDS011;19986;48.190;16.366;2023-04-26T06:27:14;45.38;;;42.63;;
33644;SDS011;19986;48.190;16.366;2023-04-26T06:29:40;45.78;;;43.13;;
33644;SDS011;19986;48.190;16.366;2023-04-26T06:32:07;44.38;;;41.85;;
33644;SDS011;19986;48.190;16.366;2023-04-26T06:34:33;43.28;;;40.72;;
33644;SDS011;19986;48.190;16.366;2023-04-26T06:37:01;43.50;;;40.47;;
33644;SDS011;19986;48.190;16.366;2023-04-26T06:39:27;45.20;;;42.35;;
33644;SDS011;19986;48.190;16.366;2023-04-26T06:41:52;43.58;;;41.05;;
33644;SDS011;19986;48.190;16.366;2023-04-26T06:44:18;45.15;;;42.45;;
33644;SDS011;19986;48.190;16.366;2023-04-26T06:46:44;44.53;;;41.92;;
33644;SDS011;19986;48.190;16.366;2023-04-26T06:49:10;41.90;;;39.55;;
33644;SDS011;19986;48.190;16.366;2023-04-26T06:51:36;47.10;;;44.63;;
33644;SDS011;19986;48.190;16.366;2023-04-26T06:54:02;43.42;;;40.60;;
33644;SDS011;19986;48.190;16.366;2023-04-26T06:56:29;46.05;;;43.20;;
33644;SDS011;19986;48.190;16.366;2023-04-26T07:01:25;44.65;;;41.88;;
33644;SDS011;19986;48.190;16.366;2023-04-26T07:03:54;46.20;;;42.90;;
33644;SDS011;19986;48.190;16.366;2023-04-26T07:06:21;42.15;;;39.38;;
33644;SDS011;19986;48.190;16.366;2023-04-26T07:08:48;44.13;;;41.45;;
33644;SDS011;19986;48.190;16.366;2023-04-26T07:11:14;43.85;;;41.35;;
33644;SDS011;19986;48.190;16.366;2023-04-26T07:13:40;45.72;;;43.13;;
33644;SDS011;19986;48.190;16.366;2023-04-26T07:16:05;44.15;;;41.58;;
33644;SDS011;19986;48.190;16.366;2023-04-26T07:18:31;43.55;;;41.15;;
33644;SDS011;19986;48.190;16.366;2023-04-26T07:20:57;43.28;;;40.70;;
33644;SDS011;19986;48.190;16.366;2023-04-26T07:23:23;43.28;;;41.05;;
33644;SDS011;19986;48.190;16.366;2023-04-26T07:25:49;43.13;;;40.70;;
33644;SDS011;19986;48.190;16.366;2023-04-26T07:28:15;43.25;;;40.75;;
33644;SDS011;19986;48.190;16.366;2023-04-26T07:30:41;43.17;;;40.80;;
33644;SDS011;19986;48.190;16.366;2023-04-26T07:33:06;42.63;;;39.83;;
33644;SDS011;19986;48.190;16.366;2023-04-26T07:35:32;42.30;;;39.83;;
33644;SDS011;19986;48.190;16.366;2023-04-26T07:37:59;43.33;;;40.53;;
33644;SDS011;19986;48.190;16.366;2023-04-26T07:40:26;42.17;;;39.83;;
33644;SDS011;19986;48.190;16.366;2023-04-26T07:42:53;41.67;;;39.15;;
33644;SDS011;19986;48.190;16.366;2023-04-26T07:45:20;43.92;;;41.47;;
33644;SDS011;19986;48.190;16.366;2023-04-26T07:47:46;43.92;;;41.42;;
33644;SDS011;19986;48.190;16.366;2023-04-26T07:50:12;43.80;;;41.50;;
33644;SDS011;19986;48.190;16.366;2023-04-26T07:52:38;43.72;;;41.28;;
33644;SDS011;19986;48.190;16.366;2023-04-26T07:55:04;42.33;;;39.92;;
33644;SDS011;19986;48.190;16.366;2023-04-26T07:57:30;42.60;;;40.28;;
33644;SDS011;19986;48.190;16.366;2023-04-26T07:59:56;41.50;;;38.92;;
33644;SDS011;19986;48.190;16.366;2023-04-26T08:02:22;44.13;;;41.35;;
33644;SDS011;19986;48.190;16.366;2023-04-26T08:04:52;41.58;;;39.30;;
33644;SDS011;19986;48.190;16.366;2023-04-26T08:07:19;40.13;;;37.80;;
33644;SDS011;19986;48.190;16.366;2023-04-26T08:09:45;43.25;;;40.75;;
33644;SDS011;19986;48.190;16.366;2023-04-26T08:12:13;41.85;;;39.03;;
33644;SDS011;19986;48.190;16.366;2023-04-26T08:14:39;41.53;;;39.22;;
33644;SDS011;19986;48.190;16.366;2023-04-26T08:17:06;41.28;;;38.75;;
33644;SDS011;19986;48.190;16.366;2023-04-26T08:19:33;40.80;;;38.33;;
33644;SDS011;19986;48.190;16.366;2023-04-26T08:22:00;41.88;;;39.38;;
33644;SDS011;19986;48.190;16.366;2023-04-26T08:24:26;42.15;;;39.78;;
33644;SDS011;19986;48.190;16.366;2023-04-26T08:26:52;41.85;;;38.83;;
33644;SDS011;19986;48.190;16.366;2023-04-26T08:29:19;42.38;;;40.13;;
33644;SDS011;19986;48.190;16.366;2023-04-26T08:31:45;40.35;;;37.83;;
33644;SDS011;19986;48.190;16.366;2023-04-26T08:34:11;41.40;;;38.78;;
33644;SDS011;19986;48.190;16.366;2023-04-26T08:36:38;41.05;;;38.65;;
33644;SDS011;19986;48.190;16.366;2023-04-26T08:39:05;42.50;;;39.75;;
33644;SDS011;19986;48.190;16.366;2023-04-26T08:41:35;39.80;;;37.67;;
33644;SDS011;19986;48.190;16.366;2023-04-26T08:44:05;40.15;;;37.83;;
33644;SDS011;19986;48.190;16.366;2023-04-26T08:46:35;39.83;;;37.63;;
33644;SDS011;19986;48.190;16.366;2023-04-26T08:52:09;43.35;;;41.05;;
33644;SDS011;19986;48.190;16.366;2023-04-26T08:54:38;41.67;;;39.42;;
33644;SDS011;19986;48.190;16.366;2023-04-26T08:57:08;40.95;;;38.70;;
33644;SDS011;19986;48.190;16.366;2023-04-26T08:59:35;41.47;;;38.70;;
33644;SDS011;19986;48.190;16.366;2023-04-26T09:02:03;41.92;;;39.63;;
33644;SDS011;19986;48.190;16.366;2023-04-26T09:04:30;42.30;;;39.33;;
33644;SDS011;19986;48.190;16.366;2023-04-26T09:07:00;39.90;;;37.50;;
33644;SDS011;19986;48.190;16.366;2023-04-26T09:09:27;40.80;;;38.45;;
33644;SDS011;19986;48.190;16.366;2023-04-26T09:11:58;42.88;;;40.28;;
33644;SDS011;19986;48.190;16.366;2023-04-26T09:14:25;43.17;;;40.67;;
33644;SDS011;19986;48.190;16.366;2023-04-26T09:16:51;41.03;;;38.83;;
33644;SDS011;19986;48.190;16.366;2023-04-26T09:19:33;41.42;;;39.03;;
33644;SDS011;19986;48.190;16.366;2023-04-26T09:22:01;40.50;;;38.40;;
33644;SDS011;19986;48.190;16.366;2023-04-26T09:24:28;40.25;;;38.05;;
33644;SDS011;19986;48.190;16.366;2023-04-26T09:27:10;41.03;;;38.83;;
33644;SDS011;19986;48.190;16.366;2023-04-26T09:29:36;39.33;;;36.85;;
33644;SDS011;19986;48.190;16.366;2023-04-26T09:32:02;39.17;;;36.90;;
33644;SDS011;19986;48.190;16.366;2023-04-26T09:34:28;41.45;;;39.13;;
33644;SDS011;19986;48.190;16.366;2023-04-26T09:36:55;40.42;;;38.22;;
33644;SDS011;19986;48.190;16.366;2023-04-26T09:39:34;42.53;;;40.03;;
33644;SDS011;19986;48.190;16.366;2023-04-26T09:42:04;41.30;;;39.00;;
33644;SDS011;19986;48.190;16.366;2023-04-26T09:44:33;40.92;;;38.83;;
33644;SDS011;19986;48.190;16.366;2023-04-26T09:47:06;40.25;;;37.72;;
33644;SDS011;19986;48.190;16.366;2023-04-26T09:49:47;43.47;;;40.97;;
33644;SDS011;19986;48.190;16.366;2023-04-26T09:52:16;40.22;;;37.83;;
33644;SDS011;19986;48.190;16.366;2023-04-26T09:54:47;41.30;;;38.92;;
33644;SDS011;19986;48.190;16.366;2023-04-26T09:57:17;38.25;;;36.20;;
33644;SDS011;19986;48.190;16.366;2023-04-26T10:04:50;40.60;;;38.20;;
33644;SDS011;19986;48.190;16.366;2023-04-26T10:07:18;41.63;;;39.53;;
33644;SDS011;19986;48.190;16.366;2023-04-26T10:09:45;40.80;;;38.60;;
33644;SDS011;19986;48.190;16.366;2023-04-26T10:12:12;37.63;;;35.45;;
33644;SDS011;19986;48.190;16.366;2023-04-26T10:14:42;38.58;;;36.40;;
33644;SDS011;19986;48.190;16.366;2023-04-26T10:17:09;37.97;;;35.85;;
33644;SDS011;19986;48.190;16.366;2023-04-26T10:19:39;38.90;;;36.70;;
33644;SDS011;19986;48.190;16.366;2023-04-26T10:22:09;38.47;;;36.45;;
33644;SDS011;19986;48.190;16.366;2023-04-26T10:24:44;37.15;;;35.05;;
33644;SDS011;19986;48.190;16.366;2023-04-26T10:27:10;39.05;;;36.92;;
33644;SDS011;19986;48.190;16.366;2023-04-26T10:32:20;37.75;;;35.50;;
33644;SDS011;19986;48.190;16.366;2023-04-26T10:35:20;38.42;;;36.22;;
33644;SDS011;19986;48.190;16.366;2023-04-26T10:38:26;38.38;;;35.97;;
33644;SDS011;19986;48.190;16.366;2023-04-26T10:40:30;38.10;;;36.10;;
33644;SDS011;19986;48.190;16.366;2023-04-26T10:45:39;37.53;;;35.63;;
33644;SDS011;19986;48.190;16.366;2023-04-26T10:51:19;38.15;;;36.15;;
33644;SDS011;19986;48.190;16.366;2023-04-26T10:56:56;37.75;;;35.75;;
33644;SDS011;19986;48.190;16.366;2023-04-26T10:59:15;42.28;;;39.88;;
33644;SDS011;19986;48.190;16.366;2023-04-26T11:01:44;37.55;;;35.55;;
33644;SDS011;19986;48.190;16.366;2023-04-26T11:04:11;35.90;;;33.90;;
33644;SDS011;19986;48.190;16.366;2023-04-26T11:06:55;36.03;;;33.85;;
33644;SDS011;19986;48.190;16.366;2023-04-26T11:12:04;36.03;;;34.03;;
33644;SDS011;19986;48.190;16.366;2023-04-26T11:14:37;36.05;;;33.88;;
33644;SDS011;19986;48.190;16.366;2023-04-26T11:17:09;36.50;;;34.45;;
33644;SDS011;19986;48.190;16.366;2023-04-26T11:19:36;37.65;;;35.75;;
33644;SDS011;19986;48.190;16.366;2023-04-26T11:22:02;35.85;;;33.95;;
33644;SDS011;19986;48.190;16.366;2023-04-26T11:24:32;37.83;;;35.70;;
33644;SDS011;19986;48.190;16.366;2023-04-26T11:27:01;38.63;;;36.47;;
33644;SDS011;19986;48.190;16.366;2023-04-26T11:29:33;37.58;;;35.55;;
33644;SDS011;19986;48.190;16.366;2023-04-26T11:31:59;37.55;;;35.20;;
33644;SDS011;19986;48.190;16.366;2023-04-26T11:34:32;37.35;;;35.45;;
33644;SDS011;19986;48.190;16.366;2023-04-26T11:37:06;37.90;;;35.88;;
33644;SDS011;19986;48.190;16.366;2023-04-26T11:39:32;36.38;;;34.60;;
33644;SDS011;19986;48.190;16.366;2023-04-26T11:42:08;36.38;;;34.47;;
33644;SDS011;19986;48.190;16.366;2023-04-26T11:44:35;34.92;;;33.00;;
33644;SDS011;19986;48.190;16.366;2023-04-26T11:47:05;35.25;;;33.47;;
33644;SDS011;19986;48.190;16.366;2023-04-26T11:49:32;36.30;;;34.35;;
33644;SDS011;19986;48.190;16.366;2023-04-26T11:52:00;34.60;;;32.80;;
33644;SDS011;19986;48.190;16.366;2023-04-26T11:54:33;34.10;;;32.40;;
33644;SDS011;19986;48.190;16.366;2023-04-26T11:57:17;35.95;;;33.35;;
33644;SDS011;19986;48.190;16.366;2023-04-26T11:59:43;36.85;;;35.05;;
33644;SDS011;19986;48.190;16.366;2023-04-26T12:02:10;55.30;;;50.85;;
33644;SDS011;19986;48.190;16.366;2023-04-26T12:04:36;37.33;;;35.42;;
33644;SDS011;19986;48.190;16.366;2023-04-26T12:07:04;38.58;;;36.45;;
33644;SDS011;19986;48.190;16.366;2023-04-26T12:09:31;40.00;;;37.90;;
33644;SDS011;19986;48.190;16.366;2023-04-26T12:11:57;37.25;;;35.45;;
33644;SDS011;19986;48.190;16.366;2023-04-26T12:14:38;36.83;;;34.92;;
33644;SDS011;19986;48.190;16.366;2023-04-26T12:17:05;38.63;;;36.40;;
33644;SDS011;19986;48.190;16.366;2023-04-26T12:19:32;38.85;;;36.67;;
33644;SDS011;19986;48.190;16.366;2023-04-26T12:21:58;36.92;;;35.03;;
33644;SDS011;19986;48.190;16.366;2023-04-26T12:24:28;35.97;;;34.22;;
33644;SDS011;19986;48.190;16.366;2023-04-26T12:26:57;35.88;;;33.97;;
33644;SDS011;19986;48.190;16.366;2023-04-26T12:29:23;38.08;;;36.22;;
33644;SDS011;19986;48.190;16.366;2023-04-26T12:31:49;34.85;;;33.05;;
33644;SDS011;19986;48.190;16.366;2023-04-26T12:34:15;36.13;;;34.13;;
33644;SDS011;19986;48.190;16.366;2023-04-26T12:36:41;37.35;;;35.13;;
33644;SDS011;19986;48.190;16.366;2023-04-26T12:39:12;37.03;;;35.03;;
33644;SDS011;19986;48.190;16.366;2023-04-26T12:41:43;37.95;;;36.05;;
33644;SDS011;19986;48.190;16.366;2023-04-26T12:44:10;39.08;;;37.05;;
33644;SDS011;19986;48.190;16.366;2023-04-26T12:46:37;37.63;;;35.63;;
33644;SDS011;19986;48.190;16.366;2023-04-26T12:49:03;34.67;;;32.88;;
33644;SDS011;19986;48.190;16.366;2023-04-26T12:51:29;39.67;;;37.63;;
33644;SDS011;19986;48.190;16.366;2023-04-26T12:53:56;36.15;;;33.90;;
33644;SDS011;19986;48.190;16.366;2023-04-26T12:56:22;39.20;;;37.30;;
33644;SDS011;19986;48.190;16.366;2023-04-26T12:58:48;37.45;;;35.35;;
33644;SDS011;19986;48.190;16.366;2023-04-26T13:01:14;39.08;;;36.97;;
33644;SDS011;19986;48.190;16.366;2023-04-26T13:03:41;35.85;;;34.15;;
33644;SDS011;19986;48.190;16.366;2023-04-26T13:06:07;38.70;;;36.80;;
33644;SDS011;19986;48.190;16.366;2023-04-26T13:08:33;41.35;;;39.17;;
33644;SDS011;19986;48.190;16.366;2023-04-26T13:10:59;37.50;;;35.60;;
33644;SDS011;19986;48.190;16.366;2023-04-26T13:13:25;37.70;;;35.85;;
33644;SDS011;19986;48.190;16.366;2023-04-26T13:15:51;39.50;;;37.50;;
33644;SDS011;19986;48.190;16.366;2023-04-26T13:18:17;39.67;;;37.67;;
33644;SDS011;19986;48.190;16.366;2023-04-26T13:20:43;36.70;;;34.65;;
33644;SDS011;19986;48.190;16.366;2023-04-26T13:23:09;39.80;;;37.80;;
33644;SDS011;19986;48.190;16.366;2023-04-26T13:25:36;39.67;;;37.40;;
33644;SDS011;19986;48.190;16.366;2023-04-26T13:28:02;38.17;;;36.22;;
33644;SDS011;19986;48.190;16.366;2023-04-26T13:30:28;39.03;;;37.03;;
33644;SDS011;19986;48.190;16.366;2023-04-26T13:32:54;39.72;;;37.63;;
33644;SDS011;19986;48.190;16.366;2023-04-26T13:35:20;40.03;;;38.03;;
33644;SDS011;19986;48.190;16.366;2023-04-26T13:37:46;37.58;;;35.58;;
33644;SDS011;19986;48.190;16.366;2023-04-26T13:40:12;38.60;;;36.70;;
33644;SDS011;19986;48.190;16.366;2023-04-26T13:42:38;37.15;;;35.33;;
33644;SDS011;19986;48.190;16.366;2023-04-26T13:45:05;39.05;;;37.15;;
33644;SDS011;19986;48.190;16.366;2023-04-26T13:47:33;38.30;;;36.45;;
33644;SDS011;19986;48.190;16.366;2023-04-26T13:50:02;38.38;;;36.47;;
33644;SDS011;19986;48.190;16.366;2023-04-26T13:52:28;39.08;;;37.17;;
33644;SDS011;19986;48.190;16.366;2023-04-26T13:54:54;40.28;;;38.22;;
33644;SDS011;19986;48.190;16.366;2023-04-26T13:57:20;39.95;;;37.65;;
33644;SDS011;19986;48.190;16.366;2023-04-26T13:59:46;37.47;;;35.60;;
33644;SDS011;19986;48.190;16.366;2023-04-26T14:02:12;39.45;;;37.45;;
33644;SDS011;19986;48.190;16.366;2023-04-26T14:04:38;39.58;;;37.58;;
33644;SDS011;19986;48.190;16.366;2023-04-26T14:07:05;38.88;;;36.85;;
33644;SDS011;19986;48.190;16.366;2023-04-26T14:09:31;38.63;;;36.42;;
33644;SDS011;19986;48.190;16.366;2023-04-26T14:11:57;39.67;;;37.70;;
33644;SDS011;19986;48.190;16.366;2023-04-26T14:14:24;38.55;;;36.55;;
33644;SDS011;19986;48.190;16.366;2023-04-26T14:16:50;38.67;;;36.88;;
33644;SDS011;19986;48.190;16.366;2023-04-26T14:19:16;39.67;;;37.65;;
33644;SDS011;19986;48.190;16.366;2023-04-26T14:21:42;38.63;;;36.72;;
33644;SDS011;19986;48.190;16.366;2023-04-26T14:24:08;39.30;;;37.15;;
33644;SDS011;19986;48.190;16.366;2023-04-26T14:26:35;38.60;;;36.53;;
33644;SDS011;19986;48.190;16.366;2023-04-26T14:29:01;36.90;;;34.90;;
33644;SDS011;19986;48.190;16.366;2023-04-26T14:31:29;37.97;;;36.08;;
33644;SDS011;19986;48.190;16.366;2023-04-26T14:33:56;39.83;;;37.70;;
33644;SDS011;19986;48.190;16.366;2023-04-26T14:36:21;37.72;;;35.72;;
33644;SDS011;19986;48.190;16.366;2023-04-26T14:38:48;37.53;;;35.72;;
33644;SDS011;19986;48.190;16.366;2023-04-26T14:41:14;39.25;;;37.25;;
33644;SDS011;19986;48.190;16.366;2023-04-26T14:43:41;38.78;;;36.70;;
33644;SDS011;19986;48.190;16.366;2023-04-26T14:46:07;40.47;;;38.47;;